sensor_id;sensor_type;location;lat;lon;timestamp;P1;durP1;ratioP1;P2;durP2;ratioP2
417;SDS011;49;48.530;9.200;2022-08-19T00:01:16;42.47;;;29.70;;
417;SDS011;49;48.530;9.200;2022-08-19T00:03:43;36.63;;;27.90;;
417;SDS011;49;48.530;9.200;2022-08-19T00:06:11;33.20;;;25.77;;
417;SDS011;49;48.530;9.200;2022-08-19T00:08:37;41.77;;;30.00;;
417;SDS011;49;48.530;9.200;2022-08-19T00:11:04;42.07;;;30.47;;
417;SDS011;49;48.530;9.200;2022-08-19T00:13:32;43.30;;;30.70;;
417;SDS011;49;48.530;9.200;2022-08-19T00:16:01;38.93;;;26.97;;
417;SDS011;49;48.530;9.200;2022-08-19T00:18:29;40.30;;;29.53;;
417;SDS011;49;48.530;9.200;2022-08-19T00:21:05;41.40;;;30.37;;
417;SDS011;49;48.530;9.200;2022-08-19T00:23:34;47.13;;;31.03;;
417;SDS011;49;48.530;9.200;2022-08-19T00:26:03;48.70;;;31.33;;
417;SDS011;49;48.530;9.200;2022-08-19T00:28:31;44.60;;;31.40;;
417;SDS011;49;48.530;9.200;2022-08-19T00:31:02;48.23;;;30.60;;
417;SDS011;49;48.530;9.200;2022-08-19T00:33:29;45.63;;;32.53;;
417;SDS011;49;48.530;9.200;2022-08-19T00:35:59;44.93;;;32.10;;
417;SDS011;49;48.530;9.200;2022-08-19T00:38:26;42.20;;;31.00;;
417;SDS011;49;48.530;9.200;2022-08-19T00:40:55;47.87;;;34.40;;
417;SDS011;49;48.530;9.200;2022-08-19T00:43:23;52.23;;;32.13;;
417;SDS011;49;48.530;9.200;2022-08-19T00:45:53;43.50;;;31.30;;
417;SDS011;49;48.530;9.200;2022-08-19T00:48:21;50.47;;;32.63;;
417;SDS011;49;48.530;9.200;2022-08-19T00:50:50;45.60;;;33.33;;
417;SDS011;49;48.530;9.200;2022-08-19T00:53:20;47.53;;;32.53;;
417;SDS011;49;48.530;9.200;2022-08-19T00:55:52;51.07;;;32.83;;
417;SDS011;49;48.530;9.200;2022-08-19T00:58:22;47.30;;;32.47;;
417;SDS011;49;48.530;9.200;2022-08-19T01:00:55;40.93;;;29.93;;
417;SDS011;49;48.530;9.200;2022-08-19T01:03:24;49.70;;;32.70;;
417;SDS011;49;48.530;9.200;2022-08-19T01:05:51;48.33;;;32.33;;
417;SDS011;49;48.530;9.200;2022-08-19T01:08:20;53.23;;;33.53;;
417;SDS011;49;48.530;9.200;2022-08-19T01:10:50;46.73;;;30.90;;
417;SDS011;49;48.530;9.200;2022-08-19T01:13:30;44.33;;;33.33;;
417;SDS011;49;48.530;9.200;2022-08-19T01:16:00;42.97;;;30.97;;
417;SDS011;49;48.530;9.200;2022-08-19T01:18:30;48.30;;;33.20;;
417;SDS011;49;48.530;9.200;2022-08-19T01:21:05;42.07;;;31.20;;
417;SDS011;49;48.530;9.200;2022-08-19T01:23:37;42.90;;;31.50;;
417;SDS011;49;48.530;9.200;2022-08-19T01:26:11;47.80;;;33.43;;
417;SDS011;49;48.530;9.200;2022-08-19T01:28:40;49.20;;;33.10;;
417;SDS011;49;48.530;9.200;2022-08-19T01:31:09;47.17;;;32.93;;
417;SDS011;49;48.530;9.200;2022-08-19T01:33:40;47.60;;;31.93;;
417;SDS011;49;48.530;9.200;2022-08-19T01:36:09;48.67;;;32.37;;
417;SDS011;49;48.530;9.200;2022-08-19T01:38:40;46.10;;;30.10;;
417;SDS011;49;48.530;9.200;2022-08-19T01:41:10;36.43;;;25.57;;
417;SDS011;49;48.530;9.200;2022-08-19T01:43:37;45.43;;;29.80;;
417;SDS011;49;48.530;9.200;2022-08-19T01:46:04;53.50;;;30.70;;
417;SDS011;49;48.530;9.200;2022-08-19T01:48:35;47.27;;;30.30;;
417;SDS011;49;48.530;9.200;2022-08-19T01:51:03;54.10;;;32.53;;
417;SDS011;49;48.530;9.200;2022-08-19T01:53:31;47.27;;;31.00;;
417;SDS011;49;48.530;9.200;2022-08-19T01:56:00;46.60;;;30.80;;
417;SDS011;49;48.530;9.200;2022-08-19T01:58:29;48.40;;;32.13;;
417;SDS011;49;48.530;9.200;2022-08-19T02:00:58;52.50;;;32.50;;
417;SDS011;49;48.530;9.200;2022-08-19T02:03:25;49.93;;;32.17;;
417;SDS011;49;48.530;9.200;2022-08-19T02:05:56;43.00;;;30.07;;
417;SDS011;49;48.530;9.200;2022-08-19T02:08:25;40.73;;;31.63;;
417;SDS011;49;48.530;9.200;2022-08-19T02:10:53;82.77;;;32.20;;
417;SDS011;49;48.530;9.200;2022-08-19T02:13:22;40.67;;;29.63;;
417;SDS011;49;48.530;9.200;2022-08-19T02:15:49;45.07;;;32.13;;
417;SDS011;49;48.530;9.200;2022-08-19T02:18:16;39.33;;;29.03;;
417;SDS011;49;48.530;9.200;2022-08-19T02:20:44;48.43;;;32.07;;
417;SDS011;49;48.530;9.200;2022-08-19T02:23:13;46.00;;;31.83;;
417;SDS011;49;48.530;9.200;2022-08-19T02:25:41;43.90;;;31.20;;
417;SDS011;49;48.530;9.200;2022-08-19T02:28:09;41.57;;;29.30;;
417;SDS011;49;48.530;9.200;2022-08-19T02:30:39;48.90;;;31.40;;
417;SDS011;49;48.530;9.200;2022-08-19T02:33:07;38.53;;;28.37;;
417;SDS011;49;48.530;9.200;2022-08-19T02:35:34;45.57;;;30.63;;
417;SDS011;49;48.530;9.200;2022-08-19T02:38:01;44.77;;;30.97;;
417;SDS011;49;48.530;9.200;2022-08-19T02:40:50;52.70;;;31.20;;
417;SDS011;49;48.530;9.200;2022-08-19T02:43:18;48.50;;;30.47;;
417;SDS011;49;48.530;9.200;2022-08-19T02:45:48;48.17;;;33.07;;
417;SDS011;49;48.530;9.200;2022-08-19T02:48:16;64.17;;;31.90;;
417;SDS011;49;48.530;9.200;2022-08-19T02:50:44;44.83;;;29.30;;
417;SDS011;49;48.530;9.200;2022-08-19T02:53:12;41.80;;;28.90;;
417;SDS011;49;48.530;9.200;2022-08-19T02:55:42;45.90;;;29.87;;
417;SDS011;49;48.530;9.200;2022-08-19T02:58:11;45.00;;;29.17;;
417;SDS011;49;48.530;9.200;2022-08-19T03:00:42;39.97;;;27.43;;
417;SDS011;49;48.530;9.200;2022-08-19T03:03:11;47.40;;;29.53;;
417;SDS011;49;48.530;9.200;2022-08-19T03:05:39;40.83;;;28.17;;
417;SDS011;49;48.530;9.200;2022-08-19T03:08:06;46.80;;;29.40;;
417;SDS011;49;48.530;9.200;2022-08-19T03:10:39;48.80;;;30.33;;
417;SDS011;49;48.530;9.200;2022-08-19T03:13:09;44.93;;;28.53;;
417;SDS011;49;48.530;9.200;2022-08-19T03:15:38;45.83;;;28.60;;
417;SDS011;49;48.530;9.200;2022-08-19T03:18:06;42.57;;;29.70;;
417;SDS011;49;48.530;9.200;2022-08-19T03:20:35;50.77;;;30.90;;
417;SDS011;49;48.530;9.200;2022-08-19T03:23:06;57.27;;;31.17;;
417;SDS011;49;48.530;9.200;2022-08-19T03:25:36;46.33;;;30.43;;
417;SDS011;49;48.530;9.200;2022-08-19T03:28:03;45.67;;;29.40;;
417;SDS011;49;48.530;9.200;2022-08-19T03:30:31;57.67;;;29.50;;
417;SDS011;49;48.530;9.200;2022-08-19T03:32:58;54.43;;;31.97;;
417;SDS011;49;48.530;9.200;2022-08-19T03:35:25;45.73;;;28.90;;
417;SDS011;49;48.530;9.200;2022-08-19T03:37:53;54.10;;;32.03;;
417;SDS011;49;48.530;9.200;2022-08-19T03:40:21;47.40;;;29.73;;
417;SDS011;49;48.530;9.200;2022-08-19T03:42:48;44.00;;;27.80;;
417;SDS011;49;48.530;9.200;2022-08-19T03:45:16;46.47;;;29.90;;
417;SDS011;49;48.530;9.200;2022-08-19T03:47:43;51.70;;;30.70;;
417;SDS011;49;48.530;9.200;2022-08-19T03:50:10;45.87;;;30.60;;
417;SDS011;49;48.530;9.200;2022-08-19T03:52:37;55.47;;;29.83;;
417;SDS011;49;48.530;9.200;2022-08-19T03:55:06;43.33;;;29.53;;
417;SDS011;49;48.530;9.200;2022-08-19T03:57:34;49.43;;;32.00;;
417;SDS011;49;48.530;9.200;2022-08-19T04:00:01;65.17;;;30.67;;
417;SDS011;49;48.530;9.200;2022-08-19T04:02:31;62.63;;;30.57;;
417;SDS011;49;48.530;9.200;2022-08-19T04:04:58;51.20;;;29.30;;
417;SDS011;49;48.530;9.200;2022-08-19T04:07:25;50.43;;;29.63;;
417;SDS011;49;48.530;9.200;2022-08-19T04:09:52;52.47;;;31.83;;
417;SDS011;49;48.530;9.200;2022-08-19T04:12:20;46.10;;;28.37;;
417;SDS011;49;48.530;9.200;2022-08-19T04:14:47;47.37;;;30.67;;
417;SDS011;49;48.530;9.200;2022-08-19T04:17:14;49.00;;;30.60;;
417;SDS011;49;48.530;9.200;2022-08-19T04:19:41;51.70;;;32.23;;
417;SDS011;49;48.530;9.200;2022-08-19T04:22:09;52.13;;;29.83;;
417;SDS011;49;48.530;9.200;2022-08-19T04:24:37;49.80;;;30.30;;
417;SDS011;49;48.530;9.200;2022-08-19T04:27:04;45.97;;;29.97;;
417;SDS011;49;48.530;9.200;2022-08-19T04:29:33;47.30;;;26.70;;
417;SDS011;49;48.530;9.200;2022-08-19T04:32:00;49.97;;;31.00;;
417;SDS011;49;48.530;9.200;2022-08-19T04:34:28;50.23;;;29.63;;
417;SDS011;49;48.530;9.200;2022-08-19T04:36:56;49.70;;;30.80;;
417;SDS011;49;48.530;9.200;2022-08-19T04:39:25;49.43;;;30.70;;
417;SDS011;49;48.530;9.200;2022-08-19T04:42:09;44.47;;;28.00;;
417;SDS011;49;48.530;9.200;2022-08-19T04:44:56;50.43;;;30.67;;
417;SDS011;49;48.530;9.200;2022-08-19T04:47:24;49.20;;;29.30;;
417;SDS011;49;48.530;9.200;2022-08-19T04:49:51;56.83;;;29.60;;
417;SDS011;49;48.530;9.200;2022-08-19T04:52:18;50.60;;;30.93;;
417;SDS011;49;48.530;9.200;2022-08-19T04:54:46;59.30;;;31.90;;
417;SDS011;49;48.530;9.200;2022-08-19T04:57:13;46.07;;;29.10;;
417;SDS011;49;48.530;9.200;2022-08-19T04:59:40;45.80;;;31.53;;
417;SDS011;49;48.530;9.200;2022-08-19T05:02:08;52.97;;;31.40;;
417;SDS011;49;48.530;9.200;2022-08-19T05:04:36;52.30;;;31.30;;
417;SDS011;49;48.530;9.200;2022-08-19T05:07:04;49.63;;;30.43;;
417;SDS011;49;48.530;9.200;2022-08-19T05:09:32;49.37;;;32.17;;
417;SDS011;49;48.530;9.200;2022-08-19T05:11:59;49.13;;;31.20;;
417;SDS011;49;48.530;9.200;2022-08-19T05:14:26;53.03;;;30.47;;
417;SDS011;49;48.530;9.200;2022-08-19T05:16:54;56.67;;;32.00;;
417;SDS011;49;48.530;9.200;2022-08-19T05:19:22;55.20;;;31.07;;
417;SDS011;49;48.530;9.200;2022-08-19T05:22:07;47.20;;;30.20;;
417;SDS011;49;48.530;9.200;2022-08-19T05:24:51;52.20;;;30.90;;
417;SDS011;49;48.530;9.200;2022-08-19T05:27:19;49.23;;;30.67;;
417;SDS011;49;48.530;9.200;2022-08-19T05:29:47;53.20;;;30.90;;
417;SDS011;49;48.530;9.200;2022-08-19T05:32:14;50.10;;;31.50;;
417;SDS011;49;48.530;9.200;2022-08-19T05:34:42;52.43;;;31.53;;
417;SDS011;49;48.530;9.200;2022-08-19T05:37:09;54.00;;;32.47;;
417;SDS011;49;48.530;9.200;2022-08-19T05:39:37;49.00;;;30.30;;
417;SDS011;49;48.530;9.200;2022-08-19T05:42:06;50.53;;;30.73;;
417;SDS011;49;48.530;9.200;2022-08-19T05:44:36;50.03;;;31.00;;
417;SDS011;49;48.530;9.200;2022-08-19T05:47:08;51.00;;;32.00;;
417;SDS011;49;48.530;9.200;2022-08-19T05:49:36;48.07;;;30.63;;
417;SDS011;49;48.530;9.200;2022-08-19T05:52:05;51.73;;;31.13;;
417;SDS011;49;48.530;9.200;2022-08-19T05:54:34;46.30;;;30.47;;
417;SDS011;49;48.530;9.200;2022-08-19T05:57:05;54.80;;;31.83;;
417;SDS011;49;48.530;9.200;2022-08-19T05:59:32;49.93;;;31.27;;
417;SDS011;49;48.530;9.200;2022-08-19T06:02:00;50.40;;;32.30;;
417;SDS011;49;48.530;9.200;2022-08-19T06:04:31;54.43;;;31.20;;
417;SDS011;49;48.530;9.200;2022-08-19T06:06:58;49.00;;;31.47;;
417;SDS011;49;48.530;9.200;2022-08-19T06:09:28;49.90;;;31.53;;
417;SDS011;49;48.530;9.200;2022-08-19T06:11:57;46.53;;;31.20;;
417;SDS011;49;48.530;9.200;2022-08-19T06:14:29;50.77;;;30.40;;
417;SDS011;49;48.530;9.200;2022-08-19T06:16:59;60.90;;;34.13;;
417;SDS011;49;48.530;9.200;2022-08-19T06:19:28;48.50;;;31.57;;
417;SDS011;49;48.530;9.200;2022-08-19T06:21:57;47.17;;;29.13;;
417;SDS011;49;48.530;9.200;2022-08-19T06:24:25;45.13;;;30.10;;
417;SDS011;49;48.530;9.200;2022-08-19T06:27:08;59.40;;;31.50;;
417;SDS011;49;48.530;9.200;2022-08-19T06:29:35;47.77;;;31.57;;
417;SDS011;49;48.530;9.200;2022-08-19T06:32:03;43.53;;;27.10;;
417;SDS011;49;48.530;9.200;2022-08-19T06:34:31;48.37;;;30.13;;
417;SDS011;49;48.530;9.200;2022-08-19T06:36:59;62.53;;;29.53;;
417;SDS011;49;48.530;9.200;2022-08-19T06:39:30;52.13;;;32.60;;
417;SDS011;49;48.530;9.200;2022-08-19T06:42:00;47.17;;;31.27;;
417;SDS011;49;48.530;9.200;2022-08-19T06:44:32;43.70;;;29.70;;
417;SDS011;49;48.530;9.200;2022-08-19T06:47:02;51.47;;;30.90;;
417;SDS011;49;48.530;9.200;2022-08-19T06:49:29;42.60;;;28.00;;
417;SDS011;49;48.530;9.200;2022-08-19T06:51:57;49.77;;;31.20;;
417;SDS011;49;48.530;9.200;2022-08-19T06:54:25;51.10;;;32.27;;
417;SDS011;49;48.530;9.200;2022-08-19T06:56:56;47.83;;;31.80;;
417;SDS011;49;48.530;9.200;2022-08-19T06:59:23;54.17;;;33.87;;
417;SDS011;49;48.530;9.200;2022-08-19T07:01:53;47.60;;;31.40;;
417;SDS011;49;48.530;9.200;2022-08-19T07:04:24;42.37;;;29.60;;
417;SDS011;49;48.530;9.200;2022-08-19T07:06:56;49.57;;;32.10;;
417;SDS011;49;48.530;9.200;2022-08-19T07:09:24;54.57;;;31.27;;
417;SDS011;49;48.530;9.200;2022-08-19T07:11:52;54.27;;;32.33;;
417;SDS011;49;48.530;9.200;2022-08-19T07:14:22;51.50;;;34.00;;
417;SDS011;49;48.530;9.200;2022-08-19T07:16:52;53.83;;;30.40;;
417;SDS011;49;48.530;9.200;2022-08-19T07:19:20;59.27;;;35.73;;
417;SDS011;49;48.530;9.200;2022-08-19T07:21:49;55.67;;;36.10;;
417;SDS011;49;48.530;9.200;2022-08-19T07:24:18;60.77;;;35.43;;
417;SDS011;49;48.530;9.200;2022-08-19T07:26:45;53.23;;;34.27;;
417;SDS011;49;48.530;9.200;2022-08-19T07:29:12;61.07;;;35.60;;
417;SDS011;49;48.530;9.200;2022-08-19T07:31:41;57.63;;;35.50;;
417;SDS011;49;48.530;9.200;2022-08-19T07:34:09;49.33;;;31.10;;
417;SDS011;49;48.530;9.200;2022-08-19T07:36:39;57.00;;;35.80;;
417;SDS011;49;48.530;9.200;2022-08-19T07:39:08;64.60;;;34.10;;
417;SDS011;49;48.530;9.200;2022-08-19T07:41:37;49.80;;;34.97;;
417;SDS011;49;48.530;9.200;2022-08-19T07:44:05;61.37;;;35.43;;
417;SDS011;49;48.530;9.200;2022-08-19T07:46:34;57.87;;;34.63;;
417;SDS011;49;48.530;9.200;2022-08-19T07:49:04;54.17;;;35.33;;
417;SDS011;49;48.530;9.200;2022-08-19T07:51:33;56.13;;;34.70;;
417;SDS011;49;48.530;9.200;2022-08-19T07:54:00;64.83;;;36.80;;
417;SDS011;49;48.530;9.200;2022-08-19T07:56:27;55.50;;;34.77;;
417;SDS011;49;48.530;9.200;2022-08-19T07:58:54;53.00;;;33.80;;
417;SDS011;49;48.530;9.200;2022-08-19T08:01:23;54.00;;;35.87;;
417;SDS011;49;48.530;9.200;2022-08-19T08:03:52;62.47;;;36.50;;
417;SDS011;49;48.530;9.200;2022-08-19T08:06:38;62.33;;;37.33;;
417;SDS011;49;48.530;9.200;2022-08-19T08:09:24;57.83;;;35.97;;
417;SDS011;49;48.530;9.200;2022-08-19T08:11:53;54.43;;;34.73;;
417;SDS011;49;48.530;9.200;2022-08-19T08:14:23;58.23;;;35.03;;
417;SDS011;49;48.530;9.200;2022-08-19T08:16:57;69.17;;;36.50;;
417;SDS011;49;48.530;9.200;2022-08-19T08:19:25;54.43;;;34.23;;
417;SDS011;49;48.530;9.200;2022-08-19T08:21:55;55.23;;;35.33;;
417;SDS011;49;48.530;9.200;2022-08-19T08:24:23;51.17;;;31.33;;
417;SDS011;49;48.530;9.200;2022-08-19T08:26:52;49.03;;;32.50;;
417;SDS011;49;48.530;9.200;2022-08-19T08:29:19;61.03;;;35.57;;
417;SDS011;49;48.530;9.200;2022-08-19T08:31:46;62.73;;;35.40;;
417;SDS011;49;48.530;9.200;2022-08-19T08:34:13;62.50;;;35.00;;
417;SDS011;49;48.530;9.200;2022-08-19T08:36:42;51.40;;;34.40;;
417;SDS011;49;48.530;9.200;2022-08-19T08:39:12;50.70;;;33.10;;
417;SDS011;49;48.530;9.200;2022-08-19T08:41:42;51.07;;;34.13;;
417;SDS011;49;48.530;9.200;2022-08-19T08:44:17;52.97;;;31.80;;
417;SDS011;49;48.530;9.200;2022-08-19T08:46:48;45.40;;;32.23;;
417;SDS011;49;48.530;9.200;2022-08-19T08:49:26;54.07;;;33.13;;
417;SDS011;49;48.530;9.200;2022-08-19T08:52:02;57.67;;;34.40;;
417;SDS011;49;48.530;9.200;2022-08-19T08:54:34;52.13;;;34.77;;
417;SDS011;49;48.530;9.200;2022-08-19T08:57:06;44.57;;;30.03;;
417;SDS011;49;48.530;9.200;2022-08-19T08:59:38;61.47;;;37.70;;
417;SDS011;49;48.530;9.200;2022-08-19T09:02:07;58.10;;;36.90;;
417;SDS011;49;48.530;9.200;2022-08-19T09:04:36;53.67;;;34.43;;
417;SDS011;49;48.530;9.200;2022-08-19T09:07:12;59.70;;;36.80;;
417;SDS011;49;48.530;9.200;2022-08-19T09:09:49;56.60;;;36.13;;
417;SDS011;49;48.530;9.200;2022-08-19T09:12:19;54.83;;;36.00;;
417;SDS011;49;48.530;9.200;2022-08-19T09:15:00;55.40;;;35.90;;
417;SDS011;49;48.530;9.200;2022-08-19T09:17:30;59.63;;;35.67;;
417;SDS011;49;48.530;9.200;2022-08-19T09:19:59;61.50;;;37.37;;
417;SDS011;49;48.530;9.200;2022-08-19T09:22:39;55.97;;;36.70;;
417;SDS011;49;48.530;9.200;2022-08-19T09:25:11;66.90;;;37.17;;
417;SDS011;49;48.530;9.200;2022-08-19T09:27:41;58.33;;;36.23;;
417;SDS011;49;48.530;9.200;2022-08-19T09:30:11;74.70;;;38.20;;
417;SDS011;49;48.530;9.200;2022-08-19T09:32:40;61.70;;;37.03;;
417;SDS011;49;48.530;9.200;2022-08-19T09:35:08;62.37;;;34.93;;
417;SDS011;49;48.530;9.200;2022-08-19T09:37:35;69.77;;;38.67;;
417;SDS011;49;48.530;9.200;2022-08-19T09:40:03;61.13;;;34.27;;
417;SDS011;49;48.530;9.200;2022-08-19T09:42:33;56.73;;;34.10;;
417;SDS011;49;48.530;9.200;2022-08-19T09:45:00;57.57;;;36.20;;
417;SDS011;49;48.530;9.200;2022-08-19T09:47:27;57.97;;;37.20;;
417;SDS011;49;48.530;9.200;2022-08-19T09:49:54;55.73;;;34.47;;
417;SDS011;49;48.530;9.200;2022-08-19T09:52:22;61.13;;;38.53;;
417;SDS011;49;48.530;9.200;2022-08-19T09:54:51;65.87;;;36.87;;
417;SDS011;49;48.530;9.200;2022-08-19T09:57:19;60.30;;;38.80;;
417;SDS011;49;48.530;9.200;2022-08-19T09:59:47;60.30;;;35.47;;
417;SDS011;49;48.530;9.200;2022-08-19T10:02:14;52.37;;;35.60;;
417;SDS011;49;48.530;9.200;2022-08-19T10:04:41;62.47;;;38.67;;
417;SDS011;49;48.530;9.200;2022-08-19T10:07:25;61.43;;;38.97;;
417;SDS011;49;48.530;9.200;2022-08-19T10:09:52;63.33;;;40.37;;
417;SDS011;49;48.530;9.200;2022-08-19T10:12:19;64.20;;;42.60;;
417;SDS011;49;48.530;9.200;2022-08-19T10:14:49;67.30;;;39.43;;
417;SDS011;49;48.530;9.200;2022-08-19T10:17:18;65.03;;;38.93;;
417;SDS011;49;48.530;9.200;2022-08-19T10:19:46;68.93;;;40.00;;
417;SDS011;49;48.530;9.200;2022-08-19T10:22:16;63.80;;;40.10;;
417;SDS011;49;48.530;9.200;2022-08-19T10:24:45;66.70;;;39.33;;
417;SDS011;49;48.530;9.200;2022-08-19T10:27:12;65.30;;;38.63;;
417;SDS011;49;48.530;9.200;2022-08-19T10:29:39;64.67;;;41.17;;
417;SDS011;49;48.530;9.200;2022-08-19T10:32:10;67.90;;;41.77;;
417;SDS011;49;48.530;9.200;2022-08-19T10:34:39;77.73;;;43.50;;
417;SDS011;49;48.530;9.200;2022-08-19T10:37:08;71.17;;;40.93;;
417;SDS011;49;48.530;9.200;2022-08-19T10:39:35;60.87;;;39.87;;
417;SDS011;49;48.530;9.200;2022-08-19T10:42:04;68.53;;;42.90;;
417;SDS011;49;48.530;9.200;2022-08-19T10:44:32;68.20;;;42.87;;
417;SDS011;49;48.530;9.200;2022-08-19T10:47:01;71.03;;;43.13;;
417;SDS011;49;48.530;9.200;2022-08-19T10:49:32;74.63;;;42.37;;
417;SDS011;49;48.530;9.200;2022-08-19T10:52:19;63.47;;;39.33;;
417;SDS011;49;48.530;9.200;2022-08-19T10:55:00;64.57;;;39.97;;
417;SDS011;49;48.530;9.200;2022-08-19T10:57:45;64.13;;;39.17;;
417;SDS011;49;48.530;9.200;2022-08-19T11:00:13;64.93;;;41.83;;
417;SDS011;49;48.530;9.200;2022-08-19T11:02:42;65.33;;;39.77;;
417;SDS011;49;48.530;9.200;2022-08-19T11:05:11;69.27;;;41.40;;
417;SDS011;49;48.530;9.200;2022-08-19T11:07:39;66.70;;;39.40;;
417;SDS011;49;48.530;9.200;2022-08-19T11:10:07;59.40;;;37.83;;
417;SDS011;49;48.530;9.200;2022-08-19T11:12:39;62.60;;;38.23;;
417;SDS011;49;48.530;9.200;2022-08-19T11:15:07;64.63;;;38.63;;
417;SDS011;49;48.530;9.200;2022-08-19T11:17:36;65.40;;;41.50;;
417;SDS011;49;48.530;9.200;2022-08-19T11:20:08;65.33;;;38.27;;
417;SDS011;49;48.530;9.200;2022-08-19T11:22:39;70.80;;;40.13;;
417;SDS011;49;48.530;9.200;2022-08-19T11:25:07;56.70;;;38.77;;
417;SDS011;49;48.530;9.200;2022-08-19T11:27:36;63.87;;;40.33;;
417;SDS011;49;48.530;9.200;2022-08-19T11:30:05;47.07;;;31.10;;
417;SDS011;49;48.530;9.200;2022-08-19T11:32:33;64.47;;;38.40;;
417;SDS011;49;48.530;9.200;2022-08-19T11:35:00;60.87;;;39.20;;
417;SDS011;49;48.530;9.200;2022-08-19T11:37:28;59.87;;;36.70;;
417;SDS011;49;48.530;9.200;2022-08-19T11:39:55;60.03;;;38.30;;
417;SDS011;49;48.530;9.200;2022-08-19T11:42:22;55.17;;;35.33;;
417;SDS011;49;48.530;9.200;2022-08-19T11:45:07;56.83;;;35.73;;
417;SDS011;49;48.530;9.200;2022-08-19T11:47:35;64.30;;;37.67;;
417;SDS011;49;48.530;9.200;2022-08-19T11:50:04;57.73;;;39.07;;
417;SDS011;49;48.530;9.200;2022-08-19T11:52:32;62.60;;;38.17;;
417;SDS011;49;48.530;9.200;2022-08-19T11:54:59;55.83;;;37.13;;
417;SDS011;49;48.530;9.200;2022-08-19T11:57:26;62.73;;;39.13;;
417;SDS011;49;48.530;9.200;2022-08-19T11:59:55;61.60;;;40.77;;
417;SDS011;49;48.530;9.200;2022-08-19T12:02:22;66.23;;;40.90;;
417;SDS011;49;48.530;9.200;2022-08-19T12:04:49;59.17;;;38.10;;
417;SDS011;49;48.530;9.200;2022-08-19T12:07:16;59.30;;;39.70;;
417;SDS011;49;48.530;9.200;2022-08-19T12:09:44;65.50;;;37.90;;
417;SDS011;49;48.530;9.200;2022-08-19T12:12:12;60.60;;;40.67;;
417;SDS011;49;48.530;9.200;2022-08-19T12:14:39;62.80;;;39.07;;
417;SDS011;49;48.530;9.200;2022-08-19T12:17:06;62.03;;;39.80;;
417;SDS011;49;48.530;9.200;2022-08-19T12:19:35;65.83;;;39.80;;
417;SDS011;49;48.530;9.200;2022-08-19T12:22:04;61.90;;;40.70;;
417;SDS011;49;48.530;9.200;2022-08-19T12:24:32;63.90;;;38.87;;
417;SDS011;49;48.530;9.200;2022-08-19T12:27:01;70.00;;;40.77;;
417;SDS011;49;48.530;9.200;2022-08-19T12:29:28;61.50;;;39.20;;
417;SDS011;49;48.530;9.200;2022-08-19T12:31:56;48.40;;;33.97;;
417;SDS011;49;48.530;9.200;2022-08-19T12:34:28;57.67;;;38.33;;
417;SDS011;49;48.530;9.200;2022-08-19T12:36:56;53.10;;;34.47;;
417;SDS011;49;48.530;9.200;2022-08-19T12:39:23;54.17;;;36.63;;
417;SDS011;49;48.530;9.200;2022-08-19T12:41:51;45.97;;;33.20;;
417;SDS011;49;48.530;9.200;2022-08-19T12:44:23;53.60;;;35.33;;
417;SDS011;49;48.530;9.200;2022-08-19T12:46:55;52.10;;;35.30;;
417;SDS011;49;48.530;9.200;2022-08-19T12:49:25;55.03;;;35.77;;
417;SDS011;49;48.530;9.200;2022-08-19T12:51:58;53.60;;;37.40;;
417;SDS011;49;48.530;9.200;2022-08-19T12:54:26;64.60;;;37.60;;
417;SDS011;49;48.530;9.200;2022-08-19T12:56:55;51.70;;;35.23;;
417;SDS011;49;48.530;9.200;2022-08-19T12:59:24;54.80;;;36.80;;
417;SDS011;49;48.530;9.200;2022-08-19T13:01:54;47.20;;;33.13;;
417;SDS011;49;48.530;9.200;2022-08-19T13:04:22;44.70;;;31.07;;
417;SDS011;49;48.530;9.200;2022-08-19T13:06:51;38.07;;;29.27;;
417;SDS011;49;48.530;9.200;2022-08-19T13:09:18;47.20;;;31.40;;
417;SDS011;49;48.530;9.200;2022-08-19T13:11:47;43.67;;;30.57;;
417;SDS011;49;48.530;9.200;2022-08-19T13:14:14;40.20;;;29.70;;
417;SDS011;49;48.530;9.200;2022-08-19T13:16:43;38.43;;;27.67;;
417;SDS011;49;48.530;9.200;2022-08-19T13:19:11;37.90;;;27.30;;
417;SDS011;49;48.530;9.200;2022-08-19T13:21:39;39.17;;;27.60;;
417;SDS011;49;48.530;9.200;2022-08-19T13:24:06;39.87;;;27.23;;
417;SDS011;49;48.530;9.200;2022-08-19T13:26:33;36.87;;;28.30;;
417;SDS011;49;48.530;9.200;2022-08-19T13:29:00;44.20;;;28.93;;
417;SDS011;49;48.530;9.200;2022-08-19T13:31:46;43.17;;;28.60;;
417;SDS011;49;48.530;9.200;2022-08-19T13:34:42;42.23;;;27.30;;
417;SDS011;49;48.530;9.200;2022-08-19T13:37:09;37.83;;;28.23;;
417;SDS011;49;48.530;9.200;2022-08-19T13:39:37;39.07;;;27.83;;
417;SDS011;49;48.530;9.200;2022-08-19T13:42:04;36.87;;;25.43;;
417;SDS011;49;48.530;9.200;2022-08-19T13:44:32;42.70;;;27.97;;
417;SDS011;49;48.530;9.200;2022-08-19T13:47:03;46.13;;;28.00;;
417;SDS011;49;48.530;9.200;2022-08-19T13:49:33;39.40;;;27.60;;
417;SDS011;49;48.530;9.200;2022-08-19T13:52:03;36.87;;;28.40;;
417;SDS011;49;48.530;9.200;2022-08-19T13:54:32;41.13;;;29.70;;
417;SDS011;49;48.530;9.200;2022-08-19T13:57:11;44.03;;;29.27;;
417;SDS011;49;48.530;9.200;2022-08-19T13:59:39;40.80;;;29.63;;
417;SDS011;49;48.530;9.200;2022-08-19T14:02:08;39.97;;;29.47;;
417;SDS011;49;48.530;9.200;2022-08-19T14:04:37;35.40;;;26.30;;
417;SDS011;49;48.530;9.200;2022-08-19T14:07:04;41.17;;;29.13;;
417;SDS011;49;48.530;9.200;2022-08-19T14:09:32;33.07;;;23.20;;
417;SDS011;49;48.530;9.200;2022-08-19T14:12:00;33.93;;;26.23;;
417;SDS011;49;48.530;9.200;2022-08-19T14:14:27;38.33;;;28.33;;
417;SDS011;49;48.530;9.200;2022-08-19T14:17:10;44.53;;;27.77;;
417;SDS011;49;48.530;9.200;2022-08-19T14:19:37;40.07;;;27.20;;
417;SDS011;49;48.530;9.200;2022-08-19T14:22:06;36.37;;;25.30;;
417;SDS011;49;48.530;9.200;2022-08-19T14:24:36;39.90;;;27.17;;
417;SDS011;49;48.530;9.200;2022-08-19T14:27:05;38.00;;;26.93;;
417;SDS011;49;48.530;9.200;2022-08-19T14:29:32;39.90;;;27.03;;
417;SDS011;49;48.530;9.200;2022-08-19T14:31:59;40.40;;;28.23;;
417;SDS011;49;48.530;9.200;2022-08-19T14:34:29;39.67;;;28.17;;
417;SDS011;49;48.530;9.200;2022-08-19T14:36:58;49.47;;;29.77;;
417;SDS011;49;48.530;9.200;2022-08-19T14:39:26;45.10;;;27.37;;
417;SDS011;49;48.530;9.200;2022-08-19T14:41:53;36.17;;;27.33;;
417;SDS011;49;48.530;9.200;2022-08-19T14:44:20;41.20;;;30.77;;
417;SDS011;49;48.530;9.200;2022-08-19T14:46:48;40.70;;;28.10;;
417;SDS011;49;48.530;9.200;2022-08-19T14:49:17;44.20;;;28.30;;
417;SDS011;49;48.530;9.200;2022-08-19T14:51:45;40.80;;;27.63;;
417;SDS011;49;48.530;9.200;2022-08-19T14:54:14;42.30;;;26.90;;
417;SDS011;49;48.530;9.200;2022-08-19T14:56:41;36.97;;;26.47;;
417;SDS011;49;48.530;9.200;2022-08-19T14:59:09;36.30;;;25.33;;
417;SDS011;49;48.530;9.200;2022-08-19T15:01:45;32.47;;;21.90;;
417;SDS011;49;48.530;9.200;2022-08-19T15:04:15;33.60;;;26.30;;
417;SDS011;49;48.530;9.200;2022-08-19T15:06:43;37.90;;;28.20;;
417;SDS011;49;48.530;9.200;2022-08-19T15:09:16;33.63;;;26.90;;
417;SDS011;49;48.530;9.200;2022-08-19T15:11:45;46.17;;;28.63;;
417;SDS011;49;48.530;9.200;2022-08-19T15:14:15;39.27;;;26.90;;
417;SDS011;49;48.530;9.200;2022-08-19T15:16:43;34.90;;;23.27;;
417;SDS011;49;48.530;9.200;2022-08-19T15:19:10;34.70;;;26.47;;
417;SDS011;49;48.530;9.200;2022-08-19T15:21:37;32.53;;;23.30;;
417;SDS011;49;48.530;9.200;2022-08-19T15:24:10;37.03;;;24.57;;
417;SDS011;49;48.530;9.200;2022-08-19T15:26:41;35.00;;;25.50;;
417;SDS011;49;48.530;9.200;2022-08-19T15:29:15;38.03;;;25.30;;
417;SDS011;49;48.530;9.200;2022-08-19T15:31:46;35.37;;;24.87;;
417;SDS011;49;48.530;9.200;2022-08-19T15:34:15;32.43;;;25.00;;
417;SDS011;49;48.530;9.200;2022-08-19T15:36:43;29.40;;;24.47;;
417;SDS011;49;48.530;9.200;2022-08-19T15:39:26;33.47;;;24.40;;
417;SDS011;49;48.530;9.200;2022-08-19T15:41:55;33.47;;;25.07;;
417;SDS011;49;48.530;9.200;2022-08-19T15:44:25;28.63;;;22.37;;